Time;durP1;ratioP1;P1;durP2;ratioP2;P2;SDS_P1;SDS_P2;PMS_P1;PMS_P2;Temp;Humidity;BMP_temperature;BMP_pressure;BME280_temperature;BME280_humidity;BME280_pressure;Samples;Min_cycle;Max_cycle;Signal;HPM_P1;HPM_P2
2023/09/16 00:02:13;;;;;;;14.87;12.83;;;;;;;17.53;70.27;96163.22;4930140;29;20190;-72
2023/09/16 00:04:38;;;;;;;17.00;12.33;;;;;;;17.57;70.09;96161.16;4930620;29;20174;-72
2023/09/16 00:07:03;;;;;;;13.10;11.60;;;;;;;17.55;69.97;96163.94;4930111;29;20182;-73
2023/09/16 00:09:29;;;;;;;13.53;12.13;;;;;;;17.53;70.20;96160.56;4929735;29;20864;-71
2023/09/16 00:11:55;;;;;;;15.07;13.53;;;;;;;17.55;70.24;96153.34;4929987;29;20182;-72
2023/09/16 00:14:22;;;;;;;13.77;12.47;;;;;;;17.49;70.53;96156.44;4930820;29;20201;-70
2023/09/16 00:16:49;;;;;;;15.30;13.30;;;;;;;17.49;70.31;96151.13;4930059;29;20655;-71
2023/09/16 00:19:14;;;;;;;14.70;12.33;;;;;;;17.47;70.50;96158.34;4929915;29;20441;-71
2023/09/16 00:21:41;;;;;;;13.57;11.93;;;;;;;17.38;70.78;96155.56;4923588;29;20807;-72
2023/09/16 00:24:09;;;;;;;13.70;11.70;;;;;;;17.44;70.42;96158.59;4930392;29;20733;-72
2023/09/16 00:26:34;;;;;;;12.90;11.70;;;;;;;17.49;70.04;96153.78;4930794;29;20482;-72
2023/09/16 00:29:00;;;;;;;13.70;12.00;;;;;;;17.44;70.14;96153.28;4928500;29;20855;-73
2023/09/16 00:31:27;;;;;;;16.43;13.50;;;;;;;17.47;70.24;96152.22;4930483;29;20179;-72
2023/09/16 00:33:52;;;;;;;13.03;11.83;;;;;;;17.38;70.68;96145.78;4930942;29;20659;-72
2023/09/16 00:36:18;;;;;;;13.43;12.03;;;;;;;17.38;70.60;96148.44;4929855;29;20414;-71
2023/09/16 00:38:43;;;;;;;14.37;12.80;;;;;;;17.39;70.78;96152.81;4928926;29;20630;-72
2023/09/16 00:41:09;;;;;;;18.83;12.53;;;;;;;17.42;70.32;96151.72;4930008;29;20185;-72
2023/09/16 00:43:34;;;;;;;15.33;12.60;;;;;;;17.47;70.57;96153.06;4931165;29;20234;-73
2023/09/16 00:45:59;;;;;;;19.73;12.70;;;;;;;17.46;70.25;96159.34;4930845;29;20290;-70
2023/09/16 00:48:26;;;;;;;17.33;12.27;;;;;;;17.45;70.17;96157.63;4928725;29;20210;-73
2023/09/16 00:50:52;;;;;;;13.50;12.20;;;;;;;17.29;70.82;96152.66;4929410;29;20587;-72
2023/09/16 00:53:18;;;;;;;15.63;12.00;;;;;;;17.33;70.49;96148.78;4928866;29;20453;-73
2023/09/16 00:55:46;;;;;;;14.17;11.90;;;;;;;17.41;70.61;96148.22;4928843;29;20423;-73
2023/09/16 00:58:12;;;;;;;14.87;13.37;;;;;;;17.30;70.65;96142.88;4927929;29;20421;-71
2023/09/16 01:00:37;;;;;;;14.83;12.70;;;;;;;17.27;70.52;96146.59;4929413;29;21091;-74
2023/09/16 01:03:04;;;;;;;12.87;10.70;;;;;;;17.18;70.64;96149.09;4928939;29;20222;-71
2023/09/16 01:05:30;;;;;;;13.20;11.60;;;;;;;17.22;70.40;96137.28;4929392;29;20238;-71
2023/09/16 01:07:57;;;;;;;14.97;11.77;;;;;;;17.11;71.21;96144.25;4928205;29;20462;-72
2023/09/16 01:10:23;;;;;;;14.50;12.30;;;;;;;17.08;71.13;96143.63;4929546;29;20202;-70
2023/09/16 01:12:52;;;;;;;13.00;11.70;;;;;;;17.06;71.19;96140.25;4929440;29;20975;-73
2023/09/16 01:15:20;;;;;;;13.60;12.23;;;;;;;17.05;71.62;96146.50;4929087;29;20668;-71
2023/09/16 01:18:03;;;;;;;14.30;12.80;;;;;;;17.14;71.32;96137.88;4927725;29;21211;-71
2023/09/16 01:20:29;;;;;;;15.30;13.20;;;;;;;17.15;71.09;96134.28;4928636;29;20896;-69
2023/09/16 01:22:55;;;;;;;13.80;12.50;;;;;;;17.02;71.19;96146.72;4928882;29;20415;-72
2023/09/16 01:25:24;;;;;;;12.53;11.23;;;;;;;17.06;71.04;96148.19;4929356;29;20263;-72
2023/09/16 01:27:50;;;;;;;15.10;13.07;;;;;;;17.18;71.11;96149.09;4927956;29;20454;-73
2023/09/16 01:30:15;;;;;;;19.70;13.80;;;;;;;17.18;70.60;96152.59;4930373;29;20449;-72
2023/09/16 01:32:57;;;;;;;15.17;12.90;;;;;;;17.06;70.87;96145.56;4928928;29;20175;-73
2023/09/16 01:35:26;;;;;;;13.07;11.70;;;;;;;17.16;70.83;96146.56;4930059;29;20632;-73
2023/09/16 01:37:53;;;;;;;13.40;12.07;;;;;;;17.00;71.43;96146.00;4929089;29;20422;-72
2023/09/16 01:40:22;;;;;;;13.13;11.83;;;;;;;16.96;71.31;96148.03;4930911;29;20427;-73
2023/09/16 01:42:48;;;;;;;14.40;12.90;;;;;;;16.88;71.91;96145.09;4930479;29;20407;-73
2023/09/16 01:45:14;;;;;;;13.63;12.23;;;;;;;16.86;71.68;96142.53;4930721;29;20426;-72
2023/09/16 01:47:39;;;;;;;14.07;12.70;;;;;;;16.75;72.15;96146.91;4929565;29;20214;-71
2023/09/16 01:50:05;;;;;;;15.17;13.63;;;;;;;16.76;71.80;96133.53;4930251;29;20269;-74
2023/09/16 01:52:31;;;;;;;15.20;12.60;;;;;;;16.69;71.55;96140.25;4930271;29;20534;-72
2023/09/16 01:54:56;;;;;;;14.13;12.67;;;;;;;16.71;71.55;96135.69;4930530;29;20167;-74
2023/09/16 01:57:21;;;;;;;15.63;13.57;;;;;;;16.69;71.58;96135.78;4931955;29;20971;-72
2023/09/16 01:59:47;;;;;;;19.23;14.20;;;;;;;16.59;72.32;96136.59;4930232;29;20258;-73
2023/09/16 02:02:12;;;;;;;16.70;11.50;;;;;;;16.63;72.34;96141.56;4930821;29;20699;-73
2023/09/16 02:04:43;;;;;;;14.10;12.47;;;;;;;16.65;72.21;96139.66;4933183;29;20239;-70
2023/09/16 02:07:08;;;;;;;15.17;12.30;;;;;;;16.77;71.28;96140.56;4935326;29;20637;-73
2023/09/16 02:09:34;;;;;;;12.70;11.50;;;;;;;16.70;72.22;96133.97;4933748;29;20546;-72
2023/09/16 02:11:59;;;;;;;14.23;10.93;;;;;;;16.55;71.97;96124.50;4935882;29;20187;-72
2023/09/16 02:14:25;;;;;;;15.60;13.60;;;;;;;16.50;72.21;96128.31;4937174;29;20208;-72
2023/09/16 02:16:50;;;;;;;13.90;12.43;;;;;;;16.52;72.64;96136.16;4937105;29;20178;-71
2023/09/16 02:19:16;;;;;;;13.40;12.00;;;;;;;16.54;72.11;96133.44;4935900;29;20196;-72
2023/09/16 02:21:41;;;;;;;16.13;12.67;;;;;;;16.58;72.24;96135.72;4935661;29;20655;-71
2023/09/16 02:24:07;;;;;;;13.60;12.20;;;;;;;16.56;72.44;96137.66;4933209;29;20187;-71
2023/09/16 02:26:32;;;;;;;13.70;12.30;;;;;;;16.42;72.57;96140.44;4934547;29;20227;-73
2023/09/16 02:28:57;;;;;;;13.67;11.83;;;;;;;16.47;72.91;96139.16;4934967;29;20205;-72
2023/09/16 02:31:26;;;;;;;13.63;12.23;;;;;;;16.40;73.16;96140.53;4932614;29;20187;-72
2023/09/16 02:33:55;;;;;;;13.40;12.00;;;;;;;16.40;73.22;96137.06;4932764;29;20183;-72
2023/09/16 02:36:20;;;;;;;17.40;12.00;;;;;;;16.37;72.85;96143.41;4933580;29;20442;-74
2023/09/16 02:38:45;;;;;;;15.13;13.30;;;;;;;16.38;73.28;96139.81;4932957;29;20434;-72
2023/09/16 02:41:15;;;;;;;14.30;12.27;;;;;;;16.37;73.52;96143.41;4933371;29;20175;-72
2023/09/16 02:43:40;;;;;;;15.37;12.43;;;;;;;16.47;73.51;96149.75;4932697;29;20251;-72
2023/09/16 02:46:05;;;;;;;12.20;10.90;;;;;;;16.57;72.95;96144.63;4932834;29;21046;-72
2023/09/16 02:48:31;;;;;;;16.13;11.60;;;;;;;16.60;72.84;96141.75;4934384;29;20198;-72
2023/09/16 02:50:56;;;;;;;14.37;11.20;;;;;;;16.69;72.34;96149.03;4933694;29;20179;-71
2023/09/16 02:53:21;;;;;;;22.47;13.33;;;;;;;16.64;72.77;96151.19;4932595;29;20238;-73
2023/09/16 02:55:47;;;;;;;13.87;11.10;;;;;;;16.69;72.54;96151.69;4933347;29;20193;-72
2023/09/16 02:58:12;;;;;;;14.53;11.83;;;;;;;16.61;73.03;96145.28;4931809;29;20175;-73
2023/09/16 03:00:37;;;;;;;12.47;11.23;;;;;;;16.59;72.80;96144.53;4932583;29;20305;-72
2023/09/16 03:03:03;;;;;;;15.03;12.40;;;;;;;16.63;72.57;96144.19;4931996;29;20283;-72
2023/09/16 03:05:29;;;;;;;13.33;12.03;;;;;;;16.67;72.68;96150.09;4932632;29;20846;-72
2023/09/16 03:07:55;;;;;;;13.60;12.10;;;;;;;16.63;72.55;96148.63;4931444;29;20235;-73
2023/09/16 03:10:20;;;;;;;12.63;11.43;;;;;;;16.64;72.35;96145.03;4932486;29;20648;-73
2023/09/16 03:12:45;;;;;;;16.67;13.77;;;;;;;16.68;72.27;96157.13;4932902;29;20190;-72
2023/09/16 03:15:11;;;;;;;19.23;13.50;;;;;;;16.69;71.40;96149.03;4932710;29;20175;-73
2023/09/16 03:17:36;;;;;;;13.80;12.37;;;;;;;16.69;71.53;96154.34;4930315;29;20572;-72
2023/09/16 03:20:02;;;;;;;17.73;12.77;;;;;;;16.76;71.10;96156.56;4929924;29;20202;-71
2023/09/16 03:22:27;;;;;;;15.60;12.83;;;;;;;16.79;70.40;96156.34;4933039;29;20182;-72
2023/09/16 03:24:52;;;;;;;12.87;11.20;;;;;;;16.70;70.43;96160.47;4931947;29;20601;-72
2023/09/16 03:27:19;;;;;;;19.60;13.80;;;;;;;16.72;70.24;96148.84;4931937;29;20198;-72
2023/09/16 03:29:44;;;;;;;16.23;13.03;;;;;;;16.79;70.12;96149.25;4930505;29;20205;-71
2023/09/16 03:32:09;;;;;;;14.77;12.70;;;;;;;16.77;69.89;96155.59;4930547;29;21137;-71
2023/09/16 03:34:35;;;;;;;16.47;14.10;;;;;;;16.79;69.97;96151.91;4931121;29;20269;-73
2023/09/16 03:37:00;;;;;;;18.17;12.90;;;;;;;16.76;69.87;96148.59;4932856;29;20210;-70
2023/09/16 03:39:25;;;;;;;15.17;13.37;;;;;;;16.67;70.33;96145.66;4933811;29;20206;-72
2023/09/16 03:41:51;;;;;;;14.43;12.93;;;;;;;16.74;70.18;96140.75;4933223;29;20227;-72
2023/09/16 03:44:16;;;;;;;14.30;12.80;;;;;;;16.71;70.57;96143.63;4931870;29;20637;-72
2023/09/16 03:46:42;;;;;;;18.10;13.90;;;;;;;16.67;70.60;96135.06;4930799;29;20358;-72
2023/09/16 03:49:08;;;;;;;17.03;13.87;;;;;;;16.75;70.47;96134.53;4930800;29;20640;-72
2023/09/16 03:51:34;;;;;;;17.03;13.03;;;;;;;16.79;70.40;96143.09;4930746;29;20594;-71
2023/09/16 03:54:00;;;;;;;17.60;14.30;;;;;;;16.70;70.61;96142.81;4931405;29;20515;-72
2023/09/16 03:56:26;;;;;;;15.13;13.60;;;;;;;16.68;70.65;96146.53;4929938;29;20830;-72
2023/09/16 03:58:51;;;;;;;14.90;12.40;;;;;;;16.75;70.15;96146.91;4929678;29;20265;-72
2023/09/16 04:01:17;;;;;;;14.30;12.93;;;;;;;16.71;70.22;96147.13;4929922;29;20179;-72
2023/09/16 04:03:42;;;;;;;14.57;12.80;;;;;;;16.71;70.23;96141.81;4930348;29;20190;-72
2023/09/16 04:06:08;;;;;;;14.73;13.23;;;;;;;16.75;70.17;96139.81;4930255;29;20759;-72
2023/09/16 04:08:33;;;;;;;19.97;13.90;;;;;;;16.77;70.20;96137.91;4929740;29;20289;-71
2023/09/16 04:10:59;;;;;;;13.93;12.33;;;;;;;16.69;70.25;96130.50;4930832;29;20171;-73
2023/09/16 04:13:24;;;;;;;14.43;12.70;;;;;;;16.72;70.44;96127.63;4930439;29;20257;-72
2023/09/16 04:15:50;;;;;;;13.80;12.37;;;;;;;16.57;70.83;96128.75;4930685;29;20283;-73
2023/09/16 04:18:16;;;;;;;16.70;12.73;;;;;;;16.42;71.45;96121.91;4929512;29;20339;-72
2023/09/16 04:20:41;;;;;;;35.63;13.80;;;;;;;16.46;71.35;96113.63;4930689;29;20250;-72
2023/09/16 04:23:08;;;;;;;19.50;12.70;;;;;;;16.49;71.42;96112.56;4930268;29;20624;-72
2023/09/16 04:25:34;;;;;;;19.53;16.00;;;;;;;16.42;71.82;96116.59;4929830;29;20818;-71
2023/09/16 04:28:00;;;;;;;13.77;12.37;;;;;;;16.47;71.94;96117.13;4929551;29;20450;-71
2023/09/16 04:30:26;;;;;;;17.23;13.63;;;;;;;16.44;72.52;96114.66;4931043;29;20254;-71
2023/09/16 04:32:53;;;;;;;16.80;13.23;;;;;;;16.27;73.13;96118.53;4929127;29;20182;-72
2023/09/16 04:35:19;;;;;;;14.83;13.27;;;;;;;16.23;73.37;96115.28;4929822;29;20605;-72
2023/09/16 04:37:44;;;;;;;16.00;14.00;;;;;;;15.99;74.35;96114.34;4929298;29;20531;-71
2023/09/16 04:40:11;;;;;;;16.27;13.40;;;;;;;15.93;74.60;96122.72;4933460;29;20933;-72
2023/09/16 04:42:37;;;;;;;16.70;12.80;;;;;;;16.04;74.67;96120.19;4929982;29;20182;-71
2023/09/16 04:45:04;;;;;;;14.63;12.40;;;;;;;16.24;73.44;96124.06;4931004;29;20422;-70
2023/09/16 04:47:29;;;;;;;17.97;13.40;;;;;;;16.26;73.45;96120.34;4937260;29;20636;-71
2023/09/16 04:49:55;;;;;;;20.20;14.47;;;;;;;15.97;74.83;96118.88;4930526;29;21331;-71
2023/09/16 04:52:21;;;;;;;15.50;12.80;;;;;;;16.16;73.78;96116.66;4930984;29;20250;-72
2023/09/16 04:54:47;;;;;;;16.93;14.13;;;;;;;16.06;74.61;96118.25;4930261;29;20198;-72
2023/09/16 04:57:13;;;;;;;16.67;13.17;;;;;;;16.16;73.58;96115.78;4931034;29;20414;-74
2023/09/16 04:59:39;;;;;;;27.33;14.17;;;;;;;16.24;73.62;96116.94;4930671;29;20289;-73
2023/09/16 05:02:04;;;;;;;21.03;13.50;;;;;;;16.23;73.45;96114.44;4933247;29;20618;-73
2023/09/16 05:04:30;;;;;;;28.33;15.43;;;;;;;16.19;74.05;96116.44;4931100;29;20274;-71
2023/09/16 05:06:56;;;;;;;15.80;13.93;;;;;;;16.20;73.85;96115.47;4931067;29;20186;-74
2023/09/16 05:09:22;;;;;;;16.20;12.93;;;;;;;16.16;74.40;96114.00;4928732;29;20462;-73
2023/09/16 05:11:47;;;;;;;15.93;13.30;;;;;;;16.14;74.17;96113.28;4932587;29;20181;-72
2023/09/16 05:14:13;;;;;;;14.73;13.17;;;;;;;16.13;73.86;96103.63;4930355;29;20410;-72
2023/09/16 05:16:38;;;;;;;16.33;13.30;;;;;;;16.09;73.93;96105.66;4929076;29;20964;-72
2023/09/16 05:19:03;;;;;;;18.13;13.10;;;;;;;16.04;74.03;96096.34;4929114;29;20195;-72
2023/09/16 05:21:29;;;;;;;18.77;12.90;;;;;;;15.94;74.55;96104.06;4932243;29;20187;-70
2023/09/16 05:23:54;;;;;;;16.77;13.23;;;;;;;16.08;74.14;96095.16;4931430;29;20402;-73
2023/09/16 05:26:20;;;;;;;14.40;12.90;;;;;;;16.16;74.10;96098.13;4932547;29;20186;-72
2023/09/16 05:28:45;;;;;;;16.93;13.50;;;;;;;16.49;72.50;96104.63;4935108;29;20289;-72
2023/09/16 05:31:10;;;;;;;16.97;13.90;;;;;;;16.88;71.20;96107.97;4930334;29;20185;-72
2023/09/16 05:33:36;;;;;;;21.90;15.80;;;;;;;17.69;68.12;96101.88;4931048;29;20628;-70
2023/09/16 05:36:01;;;;;;;17.60;13.50;;;;;;;18.13;66.40;96102.03;4930217;29;20174;-72
2023/09/16 05:38:27;;;;;;;38.67;16.40;;;;;;;18.73;64.11;96099.88;4935433;29;20167;-73
2023/09/16 05:40:52;;;;;;;31.77;14.17;;;;;;;18.85;63.32;96100.72;4938312;29;20243;-72
2023/09/16 05:43:17;;;;;;;17.63;12.37;;;;;;;19.14;62.00;96103.66;4936483;29;20667;-71
2023/09/16 05:45:43;;;;;;;13.27;11.90;;;;;;;19.44;61.02;96102.91;4936016;29;20187;-73
2023/09/16 05:48:09;;;;;;;12.60;11.27;;;;;;;19.85;59.61;96106.56;4936255;29;20218;-73
2023/09/16 05:50:34;;;;;;;12.67;11.47;;;;;;;20.14;58.60;96111.19;4935914;29;20518;-70
2023/09/16 05:53:03;;;;;;;17.57;12.07;;;;;;;20.62;57.33;96111.41;4937775;29;20222;-72
2023/09/16 05:55:28;;;;;;;13.53;12.00;;;;;;;21.22;55.08;96106.00;4934303;29;20179;-73
2023/09/16 05:57:53;;;;;;;12.27;11.20;;;;;;;21.25;54.64;96111.06;4938480;29;20422;-71
2023/09/16 06:00:19;;;;;;;15.80;13.63;;;;;;;20.72;56.06;96116.78;4940236;29;20201;-73
2023/09/16 06:02:44;;;;;;;12.33;11.13;;;;;;;20.77;56.34;96116.38;4934411;29;20606;-72
2023/09/16 06:05:10;;;;;;;12.43;11.20;;;;;;;21.13;55.11;96118.38;4933207;29;20273;-73
2023/09/16 06:07:39;;;;;;;13.30;10.27;;;;;;;21.24;54.86;96120.06;4929428;29;20214;-72
2023/09/16 06:10:06;;;;;;;13.10;11.00;;;;;;;21.45;53.99;96106.63;4931803;29;20338;-72
2023/09/16 06:12:33;;;;;;;13.17;11.47;;;;;;;21.38;54.49;96112.59;4935095;29;20421;-73
2023/09/16 06:14:58;;;;;;;12.30;11.10;;;;;;;20.36;57.16;96110.16;4936152;29;20415;-73
2023/09/16 06:17:24;;;;;;;18.43;13.50;;;;;;;19.27;60.79;96116.78;4929218;29;20486;-70
2023/09/16 06:19:54;;;;;;;15.07;11.47;;;;;;;19.13;61.84;96110.78;4928438;29;20282;-73
2023/09/16 06:22:20;;;;;;;15.50;13.13;;;;;;;19.46;61.04;96111.59;4927597;29;20182;-72
2023/09/16 06:24:45;;;;;;;13.13;11.93;;;;;;;19.45;60.89;96112.59;4928041;29;20419;-71
2023/09/16 06:27:14;;;;;;;17.80;13.30;;;;;;;19.08;61.74;96118.31;4928514;29;20442;-73
2023/09/16 06:29:39;;;;;;;14.90;12.70;;;;;;;18.56;63.73;96119.88;4927630;29;20508;-72
2023/09/16 06:32:04;;;;;;;19.00;14.63;;;;;;;18.33;65.07;96117.25;4926696;29;20419;-72
2023/09/16 06:34:30;;;;;;;23.83;13.90;;;;;;;17.71;67.46;96118.50;4928214;29;20303;-72
2023/09/16 06:36:55;;;;;;;31.27;14.47;;;;;;;18.45;64.92;96123.41;4928019;29;20189;-73
2023/09/16 06:39:23;;;;;;;14.73;13.23;;;;;;;18.53;64.57;96126.28;4928515;29;20231;-73
2023/09/16 06:41:49;;;;;;;19.10;14.07;;;;;;;18.35;65.20;96125.06;4930027;29;20179;-72
2023/09/16 06:44:14;;;;;;;16.87;14.83;;;;;;;18.24;65.88;96133.91;4930005;29;20494;-72
2023/09/16 06:46:40;;;;;;;15.67;13.70;;;;;;;18.23;66.11;96139.34;4929029;29;20423;-71
2023/09/16 06:49:06;;;;;;;15.13;13.60;;;;;;;18.03;66.60;96135.59;4927659;29;20266;-73
2023/09/16 06:51:31;;;;;;;19.80;15.63;;;;;;;17.45;68.62;96135.56;4927383;29;20434;-72
2023/09/16 06:53:56;;;;;;;20.90;15.73;;;;;;;17.86;67.74;96140.41;4927515;29;20190;-73
2023/09/16 06:56:22;;;;;;;15.40;13.53;;;;;;;17.95;67.34;96138.81;4931070;29;20186;-73
2023/09/16 06:58:47;;;;;;;16.30;14.80;;;;;;;17.71;67.66;96134.41;4931195;29;20273;-73
2023/09/16 07:01:12;;;;;;;14.90;13.10;;;;;;;17.74;67.88;96135.97;4931059;29;20561;-70
2023/09/16 07:03:38;;;;;;;37.53;14.77;;;;;;;18.09;67.15;96135.09;4926008;29;20197;-73
2023/09/16 07:06:04;;;;;;;22.10;14.10;;;;;;;18.30;66.48;96129.91;4929607;29;20282;-72
2023/09/16 07:08:29;;;;;;;22.83;15.00;;;;;;;18.81;64.57;96118.78;4929583;29;20213;-72
2023/09/16 07:10:55;;;;;;;34.83;15.03;;;;;;;19.06;63.99;96125.56;4930591;29;20186;-73
2023/09/16 07:13:20;;;;;;;17.23;14.07;;;;;;;19.63;62.42;96119.03;4930317;29;20838;-72
2023/09/16 07:15:56;;;;;;;17.13;13.93;;;;;;;20.52;59.79;96113.16;4930700;29;20190;-72
2023/09/16 07:18:21;;;;;;;19.03;13.37;;;;;;;21.14;57.75;96111.19;4929123;29;20274;-72
2023/09/16 07:20:50;;;;;;;20.73;13.77;;;;;;;21.93;55.74;96102.16;4930027;29;20881;-71
2023/09/16 07:23:15;;;;;;;18.50;11.70;;;;;;;22.66;53.68;96101.47;4929968;29;20175;-73
2023/09/16 07:25:41;;;;;;;14.73;12.00;;;;;;;23.05;51.96;96112.78;4929807;29;20485;-72
2023/09/16 07:28:07;;;;;;;14.40;12.90;;;;;;;22.34;54.23;96124.13;4927695;29;20206;-73
2023/09/16 07:30:33;;;;;;;14.13;12.80;;;;;;;22.02;54.20;96125.34;4931079;29;20226;-71
2023/09/16 07:32:59;;;;;;;15.97;14.40;;;;;;;21.59;56.35;96116.03;4929289;29;20419;-72
2023/09/16 07:35:24;;;;;;;15.33;13.63;;;;;;;21.12;57.39;96121.19;4929672;29;20421;-72
2023/09/16 07:37:50;;;;;;;23.13;13.83;;;;;;;22.14;54.86;96123.34;4929137;29;20175;-72
2023/09/16 07:40:16;;;;;;;15.50;13.10;;;;;;;22.49;53.35;96119.13;4930274;29;20218;-72
2023/09/16 07:42:41;;;;;;;19.47;14.90;;;;;;;21.79;55.34;96124.84;4929471;29;20505;-74
2023/09/16 07:45:07;;;;;;;25.63;16.90;;;;;;;22.11;54.23;96126.28;4928342;29;20205;-70
2023/09/16 07:47:33;;;;;;;19.37;14.63;;;;;;;22.55;53.68;96118.56;4922091;29;20203;-72
2023/09/16 07:49:58;;;;;;;18.63;14.60;;;;;;;22.18;54.20;96122.91;4924128;29;20243;-73
2023/09/16 07:52:24;;;;;;;17.93;15.73;;;;;;;21.96;55.50;96133.94;4925856;29;20198;-69
2023/09/16 07:54:49;;;;;;;20.43;14.50;;;;;;;22.24;54.69;96134.03;4925430;29;20632;-69
2023/09/16 07:57:14;;;;;;;17.77;13.77;;;;;;;23.62;51.22;96136.59;4926502;29;20526;-71
2023/09/16 07:59:40;;;;;;;29.17;14.20;;;;;;;23.73;52.00;96122.94;4924856;29;20213;-67
2023/09/16 08:02:05;;;;;;;16.30;13.80;;;;;;;23.74;50.94;96129.16;4925202;29;20608;-67
2023/09/16 08:04:31;;;;;;;16.60;13.83;;;;;;;22.65;53.62;96134.56;4925898;29;20256;-68
2023/09/16 08:06:57;;;;;;;16.17;14.60;;;;;;;22.11;54.61;96134.31;4923317;29;20269;-69
2023/09/16 08:09:23;;;;;;;17.83;16.00;;;;;;;23.19;52.84;96124.81;4922164;29;20202;-67
2023/09/16 08:11:48;;;;;;;17.47;15.77;;;;;;;21.94;55.05;96130.56;4924457;29;20461;-69
2023/09/16 08:14:14;;;;;;;16.37;14.77;;;;;;;21.26;58.05;96135.91;4925425;29;20274;-69
2023/09/16 08:16:40;;;;;;;16.47;14.77;;;;;;;22.18;55.25;96136.28;4924673;29;20249;-71
2023/09/16 08:19:05;;;;;;;15.23;13.60;;;;;;;22.79;54.19;96126.88;4926019;29;20210;-69
2023/09/16 08:21:31;;;;;;;16.20;14.17;;;;;;;23.42;51.84;96128.72;4923866;29;20226;-70
2023/09/16 08:23:56;;;;;;;15.70;13.90;;;;;;;23.58;51.73;96136.06;4926274;29;20333;-69
2023/09/16 08:26:21;;;;;;;17.03;15.27;;;;;;;22.56;53.83;96134.47;4924418;29;20197;-69
2023/09/16 08:28:47;;;;;;;18.37;16.50;;;;;;;21.98;55.53;96142.66;4925561;29;20298;-69
2023/09/16 08:31:12;;;;;;;16.87;15.17;;;;;;;21.64;57.08;96145.81;4922358;29;20201;-70
2023/09/16 08:33:38;;;;;;;16.80;15.00;;;;;;;22.79;54.56;96153.63;4925438;29;20189;-69
2023/09/16 08:36:03;;;;;;;17.27;15.67;;;;;;;21.01;58.80;96154.16;4925522;29;20265;-70
2023/09/16 08:38:28;;;;;;;20.40;14.83;;;;;;;21.88;57.44;96147.19;4925159;28;20234;-69
2023/09/16 08:41:18;;;;;;;20.27;16.30;;;;;;;22.05;56.54;96148.25;4925977;29;20664;-68
2023/09/16 08:43:47;;;;;;;18.03;16.23;;;;;;;21.46;58.78;96148.31;4908100;29;20620;-68
2023/09/16 08:46:17;;;;;;;17.37;15.77;;;;;;;21.00;59.91;96155.16;4931680;28;21009;-69
2023/09/16 08:48:45;;;;;;;18.93;16.93;;;;;;;21.06;59.80;96151.09;4929734;29;20462;-68
2023/09/16 08:51:16;;;;;;;17.30;15.60;;;;;;;21.43;59.14;96148.63;4927589;29;20629;-67
2023/09/16 08:53:42;;;;;;;19.13;16.70;;;;;;;21.27;59.75;96142.97;4929025;29;20438;-68
2023/09/16 08:56:08;;;;;;;18.27;16.57;;;;;;;21.55;58.54;96146.66;4929624;29;20897;-67
2023/09/16 08:58:39;;;;;;;18.07;15.27;;;;;;;20.78;61.26;96152.72;4929330;29;20782;-68
2023/09/16 09:01:05;;;;;;;20.33;18.37;;;;;;;20.15;63.42;96152.84;4929681;29;20443;-67
2023/09/16 09:03:32;;;;;;;20.27;18.27;;;;;;;20.38;62.76;96143.69;4929473;29;21108;-68
2023/09/16 09:05:58;;;;;;;21.60;19.50;;;;;;;20.24;63.46;96146.72;4929408;29;20179;-68
2023/09/16 09:08:24;;;;;;;20.80;18.87;;;;;;;20.21;63.90;96144.31;4928584;29;20577;-67
2023/09/16 09:10:50;;;;;;;20.50;18.50;;;;;;;20.93;61.62;96152.19;4929238;29;20187;-70
2023/09/16 09:13:16;;;;;;;21.20;19.10;;;;;;;20.88;61.29;96149.09;4929902;29;20174;-67
2023/09/16 09:15:44;;;;;;;20.67;18.57;;;;;;;21.25;61.03;96145.75;4929577;29;20778;-70
2023/09/16 09:18:11;;;;;;;17.73;16.13;;;;;;;22.05;58.98;96142.91;4928388;29;20167;-69
2023/09/16 09:20:37;;;;;;;20.30;17.90;;;;;;;21.90;58.61;96147.88;4929302;29;20442;-68
2023/09/16 09:23:03;;;;;;;19.33;17.37;;;;;;;22.61;57.17;96153.59;4929751;29;20410;-68
2023/09/16 09:25:31;;;;;;;19.83;17.83;;;;;;;22.41;57.66;96154.63;4929446;29;20209;-68
2023/09/16 09:27:59;;;;;;;20.23;18.13;;;;;;;21.80;58.82;96149.72;4928580;29;20202;-68
2023/09/16 09:30:28;;;;;;;22.00;19.80;;;;;;;21.07;61.84;96150.97;4929733;29;20437;-67
2023/09/16 09:32:57;;;;;;;22.23;19.73;;;;;;;21.80;59.73;96147.03;4930600;29;20411;-67
2023/09/16 09:35:23;;;;;;;22.00;19.70;;;;;;;21.82;59.27;96153.09;4928404;29;20441;-68
2023/09/16 09:37:49;;;;;;;37.67;18.70;;;;;;;22.65;57.62;96145.25;4930003;29;21006;-68
2023/09/16 09:40:15;;;;;;;20.90;18.70;;;;;;;22.05;59.21;96143.75;4928588;29;20445;-68
2023/09/16 09:42:52;;;;;;;21.20;19.20;;;;;;;21.59;61.11;96147.19;4928868;29;20281;-68
2023/09/16 09:45:19;;;;;;;22.53;17.80;;;;;;;22.66;57.75;96138.94;4928439;29;20418;-69
2023/09/16 09:47:46;;;;;;;23.13;18.47;;;;;;;22.39;58.78;96145.91;4928837;29;20805;-68
2023/09/16 09:50:14;;;;;;;20.80;18.80;;;;;;;22.71;57.83;96133.97;4929361;29;20443;-69
2023/09/16 09:52:48;;;;;;;19.90;17.80;;;;;;;22.54;58.06;96136.44;4926907;29;21146;-69
2023/09/16 09:55:23;;;;;;;18.97;16.53;;;;;;;22.93;57.06;96130.03;4925614;29;20429;-69
2023/09/16 09:57:52;;;;;;;16.77;15.03;;;;;;;23.51;55.89;96123.44;4924084;29;20436;-67
2023/09/16 10:00:19;;;;;;;19.70;17.70;;;;;;;23.39;55.49;96128.19;4928105;29;20506;-69
2023/09/16 10:02:47;;;;;;;20.37;18.40;;;;;;;22.46;58.16;96138.16;4926501;29;20522;-68
2023/09/16 10:05:23;;;;;;;18.90;17.00;;;;;;;22.39;59.06;96133.41;4926583;29;20439;-68
2023/09/16 10:07:49;;;;;;;19.20;15.70;;;;;;;23.09;57.50;96127.56;4926634;29;20891;-68
2023/09/16 10:10:23;;;;;;;21.03;19.03;;;;;;;22.60;58.22;96132.31;4925935;29;20919;-68
2023/09/16 10:12:52;;;;;;;19.03;17.03;;;;;;;23.42;55.97;96123.38;4927362;29;21003;-68
2023/09/16 10:15:23;;;;;;;14.33;10.60;;;;;;;23.65;55.55;96121.06;4928356;29;20427;-68
2023/09/16 10:17:48;;;;;;;30.00;15.30;;;;;;;23.88;54.80;96118.75;4928306;29;20493;-69
2023/09/16 10:20:16;;;;;;;28.30;14.87;;;;;;;24.38;53.24;96109.16;4927671;29;20473;-68
2023/09/16 10:22:43;;;;;;;18.43;16.53;;;;;;;23.63;54.57;96109.66;4928833;29;20189;-67
2023/09/16 10:25:11;;;;;;;18.30;16.40;;;;;;;22.73;57.02;96126.66;4913271;29;20439;-67
2023/09/16 10:27:44;;;;;;;15.80;14.20;;;;;;;22.90;56.96;96120.47;4908584;29;20545;-67
2023/09/16 10:30:13;;;;;;;14.50;13.00;;;;;;;23.32;54.91;96117.25;4911441;29;20948;-67
2023/09/16 10:32:39;;;;;;;16.83;15.10;;;;;;;23.32;55.81;96111.91;4911670;29;20802;-68
2023/09/16 10:35:06;;;;;;;15.13;13.53;;;;;;;23.46;55.79;96115.88;4912026;29;20443;-69
2023/09/16 10:37:32;;;;;;;13.80;12.40;;;;;;;24.21;53.72;96110.06;4911592;29;20661;-68
2023/09/16 10:39:59;;;;;;;15.27;13.77;;;;;;;24.14;53.99;96109.84;4912196;29;20459;-68
2023/09/16 10:42:25;;;;;;;17.00;15.20;;;;;;;23.79;54.89;96113.50;4912248;29;20510;-69
2023/09/16 10:44:54;;;;;;;17.10;15.30;;;;;;;24.14;54.41;96117.06;4911956;29;20415;-69
2023/09/16 10:47:22;;;;;;;14.57;13.07;;;;;;;24.53;53.44;96104.06;4911838;29;20530;-69
2023/09/16 10:49:47;;;;;;;14.77;13.40;;;;;;;24.09;54.38;96105.00;4912309;29;20454;-69
2023/09/16 10:52:18;;;;;;;14.27;12.93;;;;;;;24.01;54.55;96112.97;4912398;29;20415;-69
2023/09/16 10:55:19;;;;;;;16.23;11.57;;;;;;;24.17;54.44;96109.56;4912676;29;20181;-68
2023/09/16 10:57:54;;;;;;;13.80;12.37;;;;;;;24.11;54.10;96099.44;4918944;29;20443;-68
2023/09/16 11:00:23;;;;;;;12.43;11.23;;;;;;;23.44;55.85;96091.91;4909521;29;20458;-69
2023/09/16 11:02:59;;;;;;;13.30;12.00;;;;;;;23.44;56.32;96102.63;4915156;29;20543;-68
2023/09/16 11:05:25;;;;;;;14.10;12.70;;;;;;;23.15;57.24;96097.53;4911639;29;20461;-68
2023/09/16 11:07:54;;;;;;;14.57;13.17;;;;;;;22.99;57.74;96092.84;4913690;29;20550;-68
2023/09/16 11:10:21;;;;;;;15.93;14.47;;;;;;;23.21;57.37;96093.38;4911887;29;20785;-69
2023/09/16 11:12:47;;;;;;;13.90;12.43;;;;;;;24.13;54.83;96089.41;4911443;29;20426;-69
2023/09/16 11:15:14;;;;;;;13.43;12.23;;;;;;;23.75;55.04;96091.53;4910159;29;20519;-69